ADDS METAR Data INFO
IDs: Format: Raw Decoded Include TAF

Data at: 0314 UTC 20 Jul 2018

KCMH 200251Z 08003KT 10SM SCT060 SCT250 23/14 A2998 RMK AO2 SLP145 T02280144 53005
KCMH 200151Z 09003KT 10SM FEW250 24/14 A2997 RMK AO2 SLP143 T02440139
KCMH 200051Z 11006KT 10SM FEW250 26/13 A2996 RMK AO2 SLP140 T02560133
KCMH 192351Z 10009KT 10SM FEW250 27/13 A2996 RMK AO2 SLP140 T02720128 10294 20272 58013
KCMH 192251Z 15007KT 10SM SCT200 SCT250 28/12 A2998 RMK AO2 SLP145 T02830122
KCMH 192151Z 14009KT 10SM SCT200 BKN250 29/11 A2999 RMK AO2 SLP149 T02890111
KCMH 192051Z 07006KT 10SM BKN250 29/12 A3000 RMK AO2 SLP153 T02890117 56014
KCMH 191951Z 08006G15KT 10SM BKN250 29/12 A3001 RMK AO2 SLP156 T02890122
KCMH 191851Z 12011G15KT 10SM BKN250 28/11 A3003 RMK AO2 SLP161 T02780106
KCMH 191751Z 08009KT 10SM BKN250 28/11 A3004 RMK AO2 SLP167 T02780111 10278 20194 58016
KCMH 191651Z 08005KT 10SM BKN250 27/11 A3006 RMK AO2 SLP174 T02720111
KCMH 191551Z 09007KT 10SM BKN250 26/12 A3008 RMK AO2 SLP179 T02610117
KCMH 191451Z 15009KT 10SM BKN250 25/12 A3009 RMK AO2 SLP183 T02500117 50004
KCMH 191351Z 13006KT 10SM BKN250 24/14 A3009 RMK AO2 SLP184 T02390139
KCMH 191251Z 11005KT 10SM BKN250 21/14 A3009 RMK AO2 SLP182 T02110144
KCMH 191151Z 11007KT 10SM BKN250 19/14 A3008 RMK AO2 SLP179 T01940139 10194 20167 52003
KCMH 191051Z 10006KT 10SM FEW170 BKN250 18/13 A3007 RMK AO2 SLP178 T01780133
KCMH 190951Z 00000KT 10SM BKN250 17/12 A3007 RMK AO2 SLP177 T01720122
KCMH 190851Z 00000KT 10SM OVC250 18/12 A3007 RMK AO2 SLP176 T01830117 55001
KCMH 190751Z 08003KT 10SM BKN250 18/12 A3006 RMK AO2 SLP173 T01830117
KCMH 190651Z 08003KT 10SM BKN250 18/12 A3007 RMK AO2 SLP175 T01830117
KCMH 190551Z 06004KT 10SM BKN250 18/12 A3007 RMK AO2 SLP176 T01830117 10261 20183 51005
KCMH 190451Z 08004KT 10SM BKN250 19/13 A3007 RMK AO2 SLP176 T01890128 402830172
KCMH 190351Z 05007KT 10SM FEW250 20/14 A3006 RMK AO2 SLP174 T02000139
KCMH 190251Z 01007KT 10SM FEW060 21/14 A3006 RMK AO2 SLP171 T02060144 53012
KCMH 190151Z 05003KT 10SM FEW065 23/14 A3004 RMK AO2 SLP167 T02280139
KCMH 190051Z 08005KT 10SM FEW065 24/13 A3002 RMK AO2 SLP160 T02440133
KCMH 182351Z 06007KT 10SM SCT065 26/13 A3002 RMK AO2 SLP159 T02610128 10283 20256 56006
KCMH 182251Z 36003KT 10SM SCT060 27/12 A3002 RMK AO2 SLP160 T02720122
KCMH 182151Z 05006KT 10SM SCT065 28/12 A3003 RMK AO2 SLP162 T02780117
KCMH 182051Z 02008KT 10SM SCT055 SCT070 28/12 A3004 RMK AO2 SLP166 T02780122 58011
KCMH 181951Z 05006KT 10SM SCT055 SCT070 28/13 A3005 RMK AO2 SLP171 T02830128
KCMH 181851Z 01007KT 10SM SCT055 SCT070 28/13 A3006 RMK AO2 SLP174 T02780133
KCMH 181751Z VRB04KT 10SM SCT065 27/13 A3007 RMK AO2 SLP177 T02720133 10278 20194 58005
KCMH 181651Z 01006KT 10SM SCT048 27/13 A3008 RMK AO2 SLP180 T02670128
KCMH 181551Z 07006KT 10SM FEW044 26/14 A3009 RMK AO2 SLP183 T02560139